createdAt,value
2024-02-15T00:00:35.752Z,0.80
2024-02-15T00:03:07.677Z,0.80
2024-02-15T00:05:37.609Z,0.90
2024-02-15T00:08:07.148Z,0.90
2024-02-15T00:10:35.703Z,0.80
2024-02-15T00:13:07.469Z,0.80
2024-02-15T00:15:36.298Z,0.77
2024-02-15T00:18:05.155Z,0.80
2024-02-15T00:20:34.899Z,0.70
2024-02-15T00:23:03.097Z,0.80
2024-02-15T00:25:32.405Z,0.80
2024-02-15T00:28:02.940Z,0.70
2024-02-15T00:30:33.003Z,0.75
2024-02-15T00:33:02.266Z,0.70
2024-02-15T00:35:31.137Z,0.70
2024-02-15T00:38:00.151Z,0.80
2024-02-15T00:40:28.368Z,0.80
2024-02-15T00:42:56.611Z,0.70
2024-02-15T00:45:24.955Z,0.80
2024-02-15T00:47:55.348Z,0.77
2024-02-15T00:50:24.822Z,0.70
2024-02-15T00:52:53.079Z,0.70
2024-02-15T00:55:21.394Z,0.80
2024-02-15T00:57:49.788Z,0.80
2024-02-15T01:00:20.216Z,0.80
2024-02-15T01:02:48.520Z,0.70
2024-02-15T01:05:19.599Z,0.70
2024-02-15T01:07:49.468Z,0.70
2024-02-15T01:10:18.313Z,0.77
2024-02-15T01:12:46.578Z,0.80
2024-02-15T01:15:15.790Z,0.75
2024-02-15T01:17:44.258Z,0.80
2024-02-15T01:20:13.480Z,0.70
2024-02-15T01:22:45.387Z,0.90
2024-02-15T01:25:13.598Z,0.85
2024-02-15T01:27:42.074Z,0.80
2024-02-15T01:30:12.028Z,0.85
2024-02-15T01:32:43.310Z,0.70
2024-02-15T01:35:12.260Z,0.80
2024-02-15T01:37:42.030Z,0.70
2024-02-15T01:40:14.035Z,0.70
2024-02-15T01:42:42.325Z,0.77
2024-02-15T01:45:12.982Z,0.70
2024-02-15T01:47:42.381Z,0.70
2024-02-15T01:50:12.456Z,0.70
2024-02-15T01:52:43.560Z,0.73
2024-02-15T01:55:12.084Z,0.70
2024-02-15T01:57:41.149Z,0.80
2024-02-15T02:00:13.853Z,0.80
2024-02-15T02:02:46.647Z,0.80
2024-02-15T02:05:15.298Z,0.70
2024-02-15T02:07:46.512Z,0.85
2024-02-15T02:10:15.458Z,0.70
2024-02-15T02:12:43.638Z,0.80
2024-02-15T02:15:12.950Z,0.60
2024-02-15T02:17:42.018Z,0.85
2024-02-15T02:20:14.952Z,0.70
2024-02-15T02:22:47.528Z,0.60
2024-02-15T02:25:18.445Z,0.75
2024-02-15T02:27:47.110Z,0.80
2024-02-15T02:30:19.977Z,0.60
2024-02-15T02:32:48.513Z,0.70
2024-02-15T02:35:17.202Z,0.70
2024-02-15T02:37:46.175Z,0.60
2024-02-15T02:40:16.212Z,0.70
2024-02-15T02:42:52.402Z,0.80
2024-02-15T02:45:24.334Z,0.70
2024-02-15T02:47:54.382Z,0.60
2024-02-15T02:50:25.023Z,0.70
2024-02-15T02:52:53.960Z,0.70
2024-02-15T02:55:24.875Z,0.70
2024-02-15T02:57:54.110Z,0.70
2024-02-15T03:00:22.456Z,0.60
2024-02-15T03:02:50.676Z,0.70
2024-02-15T03:05:22.097Z,0.70
2024-02-15T03:07:52.838Z,0.60
2024-02-15T03:10:23.020Z,0.90
2024-02-15T03:12:51.152Z,0.65
2024-02-15T03:15:20.433Z,0.70
2024-02-15T03:17:50.401Z,0.70
2024-02-15T03:20:23.310Z,0.70
2024-02-15T03:22:59.284Z,0.60
2024-02-15T03:25:30.645Z,0.63
2024-02-15T03:28:04.097Z,0.60
2024-02-15T03:30:34.966Z,0.70
2024-02-15T03:33:04.533Z,0.60
2024-02-15T03:35:33.168Z,0.60
2024-02-15T03:38:01.897Z,0.60
2024-02-15T03:40:33.436Z,0.60
2024-02-15T03:43:01.890Z,0.65
2024-02-15T03:45:31.861Z,0.70
2024-02-15T03:48:00.214Z,0.80
2024-02-15T03:50:30.161Z,0.60
2024-02-15T03:53:00.962Z,0.60
2024-02-15T03:55:31.480Z,0.60
2024-02-15T03:58:00.957Z,0.65
2024-02-15T04:00:29.042Z,0.60
2024-02-15T04:02:57.904Z,0.70
2024-02-15T04:05:26.165Z,0.70
2024-02-15T04:07:54.748Z,0.63
2024-02-15T04:10:23.477Z,0.60
2024-02-15T04:12:52.170Z,0.60
2024-02-15T04:15:22.018Z,0.60
2024-02-15T04:17:56.969Z,0.50
2024-02-15T04:20:26.116Z,0.60
2024-02-15T04:22:55.887Z,0.60
2024-02-15T04:25:28.954Z,0.60
2024-02-15T04:27:58.740Z,0.68
2024-02-15T04:30:28.678Z,0.73
2024-02-15T04:32:56.989Z,0.60
2024-02-15T04:35:25.415Z,0.70
2024-02-15T04:37:54.366Z,0.50
2024-02-15T04:40:22.624Z,0.60
2024-02-15T04:42:50.822Z,0.60
2024-02-15T04:45:20.049Z,0.65
2024-02-15T04:47:54.020Z,0.60
2024-02-15T04:50:22.540Z,0.60
2024-02-15T04:52:53.644Z,0.70
2024-02-15T04:55:23.764Z,0.60
2024-02-15T04:57:56.227Z,0.60
2024-02-15T05:00:26.802Z,0.60
2024-02-15T05:02:56.844Z,0.65
2024-02-15T05:05:25.903Z,0.47
2024-02-15T05:07:54.571Z,0.50
2024-02-15T05:10:23.173Z,0.57
2024-02-15T05:12:51.907Z,0.60
2024-02-15T05:15:23.955Z,0.60
2024-02-15T05:17:52.561Z,0.60
2024-02-15T05:20:22.112Z,0.70
2024-02-15T05:22:51.463Z,0.60
2024-02-15T05:25:24.937Z,0.57
2024-02-15T05:27:56.405Z,0.52
2024-02-15T05:30:25.593Z,0.57
2024-02-15T05:32:55.478Z,0.60
2024-02-15T05:35:30.745Z,0.60
2024-02-15T05:37:58.866Z,0.60
2024-02-15T05:40:27.361Z,0.60
2024-02-15T05:43:03.267Z,0.63
2024-02-15T05:45:37.203Z,0.60
2024-02-15T05:48:10.153Z,0.50
2024-02-15T05:50:39.957Z,0.60
2024-02-15T05:53:09.104Z,0.47
2024-02-15T05:55:39.055Z,0.50
2024-02-15T05:58:09.265Z,0.60
2024-02-15T06:00:40.014Z,0.60
2024-02-15T06:03:10.388Z,0.60
2024-02-15T06:05:41.098Z,0.50
2024-02-15T06:08:09.778Z,0.68
2024-02-15T06:10:38.199Z,0.57
2024-02-15T06:13:06.421Z,0.60
2024-02-15T06:15:34.874Z,0.50
2024-02-15T06:18:04.147Z,0.50
2024-02-15T06:20:32.850Z,0.50
2024-02-15T06:23:02.962Z,0.60
2024-02-15T06:25:31.367Z,0.55
2024-02-15T06:28:03.669Z,0.60
2024-02-15T06:30:49.510Z,0.55
2024-02-15T06:33:49.867Z,0.60
2024-02-15T06:36:35.656Z,0.60
2024-02-15T06:39:23.149Z,0.60
2024-02-15T06:41:51.563Z,0.50
2024-02-15T06:44:20.608Z,0.50
2024-02-15T06:46:48.787Z,0.50
2024-02-15T06:49:17.622Z,0.60
2024-02-15T06:51:50.550Z,0.60
2024-02-15T06:54:20.470Z,0.50
2024-02-15T06:56:48.744Z,0.50
2024-02-15T06:59:17.818Z,0.50
2024-02-15T07:01:46.371Z,0.57
2024-02-15T07:04:14.631Z,0.50
2024-02-15T07:06:46.333Z,0.50
2024-02-15T07:09:16.146Z,0.60
2024-02-15T07:11:50.435Z,0.60
2024-02-15T07:14:20.707Z,0.50
2024-02-15T07:16:52.584Z,0.50
2024-02-15T07:19:23.813Z,0.52
2024-02-15T07:21:52.416Z,0.55
2024-02-15T07:24:21.496Z,0.50
2024-02-15T07:26:53.890Z,0.60
2024-02-15T07:31:50.628Z,0.60
2024-02-15T07:34:19.332Z,0.60
2024-02-15T07:36:47.839Z,0.55
2024-02-15T07:39:24.358Z,0.60
2024-02-15T07:41:54.485Z,0.50
2024-02-15T07:44:23.375Z,0.55
2024-02-15T07:46:52.593Z,0.60
2024-02-15T07:49:21.064Z,0.50
2024-02-15T07:51:54.315Z,0.50
2024-02-15T07:54:23.396Z,0.60
2024-02-15T07:56:52.907Z,0.60
2024-02-15T07:59:22.798Z,0.50
2024-02-15T08:01:51.775Z,0.60
2024-02-15T08:04:22.399Z,0.60
2024-02-15T08:06:52.046Z,0.50
2024-02-15T08:09:22.865Z,0.50
2024-02-15T08:11:51.660Z,0.60
2024-02-15T08:14:21.814Z,0.50
2024-02-15T08:16:51.509Z,0.50
2024-02-15T08:19:20.012Z,0.50
2024-02-15T08:21:51.637Z,0.70
2024-02-15T08:24:19.996Z,0.50
2024-02-15T08:26:48.699Z,0.60
2024-02-15T08:29:19.048Z,0.60
2024-02-15T08:31:47.931Z,0.60
2024-02-15T08:34:19.562Z,0.50
2024-02-15T08:36:49.062Z,0.50
2024-02-15T08:39:18.114Z,0.52
2024-02-15T08:41:47.415Z,0.50
2024-02-15T08:44:18.184Z,0.50
2024-02-15T08:46:47.732Z,0.60
2024-02-15T08:49:18.704Z,0.60
2024-02-15T08:51:47.076Z,0.60
2024-02-15T08:54:15.371Z,0.60
2024-02-15T08:56:44.775Z,0.55
2024-02-15T08:59:13.161Z,0.40
2024-02-15T09:01:41.483Z,0.50
2024-02-15T09:04:09.734Z,0.50
2024-02-15T09:06:39.351Z,0.50
2024-02-15T09:09:07.686Z,0.60
2024-02-15T09:11:36.757Z,0.50
2024-02-15T09:14:05.146Z,0.50
2024-02-15T09:16:34.886Z,0.50
2024-02-15T09:19:03.738Z,0.50
2024-02-15T09:21:32.040Z,0.50
2024-02-15T09:24:01.648Z,0.50
2024-02-15T09:26:30.356Z,0.50
2024-02-15T09:28:58.873Z,0.60
2024-02-15T09:31:27.197Z,0.50
2024-02-15T09:33:55.764Z,0.50
2024-02-15T09:36:23.985Z,0.50
2024-02-15T09:38:52.201Z,0.50
2024-02-15T09:41:22.320Z,0.50
2024-02-15T09:43:50.470Z,0.50
2024-02-15T09:46:18.623Z,0.50
2024-02-15T09:48:52.113Z,0.55
2024-02-15T09:51:23.094Z,0.45
2024-02-15T09:53:51.258Z,0.60
2024-02-15T09:56:25.290Z,0.50
2024-02-15T09:58:53.822Z,0.50
2024-02-15T10:01:25.267Z,0.50
2024-02-15T10:03:54.207Z,0.50
2024-02-15T10:06:23.838Z,0.40
2024-02-15T10:08:53.182Z,0.60
2024-02-15T10:11:22.772Z,0.55
2024-02-15T10:13:51.272Z,0.50
2024-02-15T10:16:26.046Z,0.50
2024-02-15T10:18:54.682Z,0.57
2024-02-15T10:21:31.385Z,0.50
2024-02-15T10:24:08.648Z,0.50
2024-02-15T10:26:39.403Z,0.50
2024-02-15T10:29:12.139Z,0.50
2024-02-15T10:31:42.681Z,0.50
2024-02-15T10:34:12.494Z,0.47
2024-02-15T10:36:40.993Z,0.50
2024-02-15T10:39:21.334Z,0.50
2024-02-15T10:41:54.208Z,0.50
2024-02-15T10:44:24.564Z,0.47
2024-02-15T10:46:54.648Z,0.50
2024-02-15T10:49:24.649Z,0.50
2024-02-15T10:51:57.532Z,0.50
2024-02-15T10:54:43.928Z,0.55
2024-02-15T10:57:17.888Z,0.47
2024-02-15T10:59:56.544Z,0.50
2024-02-15T11:02:33.472Z,0.50
2024-02-15T11:05:11.213Z,0.43
2024-02-15T11:07:40.128Z,0.50
2024-02-15T11:10:12.334Z,0.50
2024-02-15T11:12:48.408Z,0.50
2024-02-15T11:15:51.126Z,0.50
2024-02-15T11:18:50.816Z,0.40
2024-02-15T11:21:19.559Z,0.43
2024-02-15T11:23:47.989Z,0.50
2024-02-15T11:26:49.470Z,0.50
2024-02-15T11:29:56.814Z,0.43
2024-02-15T11:32:40.786Z,0.50
2024-02-15T11:35:13.821Z,0.60
2024-02-15T11:38:05.513Z,0.50
2024-02-15T11:41:06.724Z,0.50
2024-02-15T11:44:00.159Z,0.40
2024-02-15T11:46:33.846Z,0.50
2024-02-15T11:49:04.795Z,0.50
2024-02-15T11:51:38.639Z,0.45
2024-02-15T11:54:11.326Z,0.50
2024-02-15T12:00:16.028Z,0.40
2024-02-15T12:03:04.046Z,0.50
2024-02-15T12:05:49.723Z,0.50
2024-02-15T12:08:35.449Z,0.50
2024-02-15T12:18:43.562Z,8.15
2024-02-15T12:21:14.901Z,8.50
2024-02-15T12:23:43.474Z,7.70
2024-02-15T12:26:15.342Z,8.43
2024-02-15T12:28:47.119Z,7.85
2024-02-15T12:33:48.040Z,7.53
2024-02-15T12:36:18.382Z,8.33
2024-02-15T12:38:47.344Z,7.32
2024-02-15T12:41:22.395Z,7.30
2024-02-15T12:43:55.691Z,7.55
2024-02-15T12:46:23.960Z,6.63
2024-02-15T12:48:54.115Z,7.60
2024-02-15T12:51:22.728Z,7.15
2024-02-15T12:53:51.098Z,7.20
2024-02-15T12:56:25.288Z,7.53
2024-02-15T12:58:53.550Z,7.22
2024-02-15T13:01:22.541Z,7.32
2024-02-15T13:03:50.797Z,8.02
2024-02-15T13:06:24.908Z,7.13
2024-02-15T13:08:53.321Z,7.00
2024-02-15T13:11:21.541Z,7.30
2024-02-15T13:13:49.856Z,7.20
2024-02-15T13:16:18.099Z,7.50
2024-02-15T13:18:48.346Z,7.13
2024-02-15T13:21:18.398Z,7.07
2024-02-15T13:23:49.185Z,6.72
2024-02-15T13:26:21.093Z,7.22
2024-02-15T13:28:50.739Z,7.37
2024-02-15T13:31:18.953Z,6.80
2024-02-15T13:33:48.583Z,6.65
2024-02-15T13:36:17.103Z,6.65
2024-02-15T13:38:46.753Z,6.47
2024-02-15T13:41:14.964Z,6.57
2024-02-15T13:43:43.309Z,6.32
2024-02-15T13:46:11.534Z,6.05
2024-02-15T13:48:40.010Z,6.03
2024-02-15T13:51:10.347Z,5.80
2024-02-15T13:53:38.854Z,5.63
2024-02-15T13:56:10.749Z,5.35
2024-02-15T13:58:38.924Z,5.60
2024-02-15T14:01:07.561Z,5.30
2024-02-15T14:03:35.936Z,5.20
2024-02-15T14:06:05.358Z,5.10
2024-02-15T14:08:33.638Z,4.93
2024-02-15T14:11:01.884Z,4.90
2024-02-15T14:13:31.763Z,4.57
2024-02-15T14:16:01.025Z,4.57
2024-02-15T14:18:29.491Z,4.50
2024-02-15T14:20:57.763Z,4.10
2024-02-15T14:23:28.617Z,4.53
2024-02-15T14:26:01.407Z,4.20
2024-02-15T14:31:16.616Z,4.50
2024-02-15T14:33:44.960Z,4.32
2024-02-15T14:36:15.569Z,4.78
2024-02-15T14:38:43.886Z,4.30
2024-02-15T14:41:14.747Z,6.15
2024-02-15T14:43:45.562Z,4.90
2024-02-15T14:46:13.759Z,5.35
2024-02-15T14:48:42.447Z,4.80
2024-02-15T14:51:11.496Z,5.18
2024-02-15T14:53:39.900Z,5.28
2024-02-15T14:56:08.998Z,5.90
2024-02-15T14:58:37.323Z,6.07
2024-02-15T15:01:10.656Z,5.40
2024-02-15T15:03:40.127Z,6.10
2024-02-15T15:06:28.484Z,6.43
2024-02-15T15:09:16.685Z,6.28
2024-02-15T15:12:03.609Z,6.03
2024-02-15T15:14:32.046Z,6.40
2024-02-15T15:17:03.612Z,6.60
2024-02-15T15:19:32.847Z,6.32
2024-02-15T15:22:01.173Z,6.65
2024-02-15T15:24:29.514Z,6.30
2024-02-15T15:26:57.960Z,6.88
2024-02-15T15:29:26.330Z,6.57
2024-02-15T15:31:54.769Z,7.03
2024-02-15T15:34:24.550Z,6.63
2024-02-15T15:36:55.582Z,7.13
2024-02-15T15:39:25.728Z,7.20
2024-02-15T15:41:55.787Z,6.72
2024-02-15T15:44:28.258Z,7.20
2024-02-15T15:46:57.929Z,7.47
2024-02-15T15:49:27.730Z,7.35
2024-02-15T15:51:56.119Z,7.53
2024-02-15T15:54:24.461Z,7.25
2024-02-15T15:56:54.348Z,8.20
2024-02-15T15:59:22.640Z,8.32
2024-02-15T16:01:51.778Z,8.25
2024-02-15T16:04:20.119Z,7.72
2024-02-15T16:06:49.795Z,8.65
2024-02-15T16:09:18.048Z,8.80
2024-02-15T16:11:48.858Z,8.48
2024-02-15T16:14:19.623Z,8.75
2024-02-15T16:16:48.669Z,8.82
2024-02-15T16:19:16.889Z,8.60
2024-02-15T16:21:45.226Z,8.55
2024-02-15T16:24:14.932Z,9.23
2024-02-15T16:26:43.320Z,9.45
2024-02-15T16:29:11.476Z,9.40
2024-02-15T16:31:39.946Z,10.10
2024-02-15T16:34:08.460Z,10.18
2024-02-15T16:36:36.834Z,9.73
2024-02-15T16:39:05.231Z,9.40
2024-02-15T16:41:35.051Z,9.82
2024-02-15T16:44:03.638Z,11.23
2024-02-15T16:46:32.699Z,10.57
2024-02-15T16:49:01.384Z,10.93
2024-02-15T16:51:30.143Z,11.90
2024-02-15T16:53:58.601Z,16.10
2024-02-15T16:56:27.399Z,15.00
2024-02-15T16:58:57.605Z,14.35
2024-02-15T17:01:26.589Z,14.90
2024-02-15T17:03:56.766Z,14.85
2024-02-15T17:06:25.500Z,20.17
2024-02-15T17:08:57.065Z,17.00
2024-02-15T17:11:25.658Z,18.60
2024-02-15T17:13:56.488Z,13.90
2024-02-15T17:16:27.874Z,12.60
2024-02-15T17:18:56.576Z,14.25
2024-02-15T17:21:25.532Z,12.13
2024-02-15T17:23:53.956Z,13.02
2024-02-15T17:26:22.427Z,13.38
2024-02-15T17:28:50.622Z,12.20
2024-02-15T17:31:18.859Z,13.00
2024-02-15T17:33:48.697Z,12.32
2024-02-15T17:36:17.670Z,12.88
2024-02-15T17:38:46.076Z,15.18
2024-02-15T17:41:14.771Z,13.88
2024-02-15T17:43:43.257Z,11.68
2024-02-15T17:46:11.499Z,13.48
2024-02-15T17:48:39.780Z,11.85
2024-02-15T17:51:09.455Z,11.70
2024-02-15T17:53:38.403Z,12.30
2024-02-15T17:56:07.458Z,12.05
2024-02-15T17:58:36.240Z,11.95
2024-02-15T18:01:07.712Z,11.70
2024-02-15T18:03:35.984Z,11.70
2024-02-15T18:06:04.721Z,12.00
2024-02-15T18:08:34.829Z,11.93
2024-02-15T18:11:03.168Z,11.43
2024-02-15T18:13:31.467Z,11.45
2024-02-15T18:16:00.033Z,11.88
2024-02-15T18:18:29.692Z,12.23
2024-02-15T18:20:58.130Z,12.20
2024-02-15T18:23:26.346Z,12.40
2024-02-15T18:25:55.967Z,12.35
2024-02-15T18:28:28.719Z,12.57
2024-02-15T18:30:57.851Z,12.57
2024-02-15T18:33:28.599Z,15.30
2024-02-15T18:35:59.557Z,15.82
2024-02-15T18:38:28.840Z,14.50
2024-02-15T18:40:58.697Z,14.35
2024-02-15T18:43:27.642Z,14.38
2024-02-15T18:45:55.995Z,15.40
2024-02-15T18:48:24.396Z,14.90
2024-02-15T18:50:52.854Z,14.77
2024-02-15T18:53:21.941Z,15.93
2024-02-15T18:55:50.260Z,13.98
2024-02-15T18:58:23.087Z,16.02
2024-02-15T19:03:27.465Z,15.20
2024-02-15T19:05:56.387Z,14.88
2024-02-15T19:08:28.242Z,17.15
2024-02-15T19:10:56.919Z,16.17
2024-02-15T19:13:28.444Z,15.00
2024-02-15T19:15:57.996Z,16.13
2024-02-15T19:18:29.564Z,13.00
2024-02-15T19:21:01.585Z,16.50
2024-02-15T19:23:30.485Z,14.10
2024-02-15T19:26:01.222Z,15.13
2024-02-15T19:28:32.115Z,15.18
2024-02-15T19:31:03.034Z,15.07
2024-02-15T19:33:44.275Z,14.75
2024-02-15T19:36:25.764Z,14.68
2024-02-15T19:38:56.261Z,14.75
2024-02-15T19:41:32.360Z,14.25
2024-02-15T19:44:04.833Z,14.73
2024-02-15T19:46:34.839Z,14.23
2024-02-15T19:49:05.270Z,14.40
2024-02-15T19:51:35.787Z,14.70
2024-02-15T19:54:06.246Z,13.75
2024-02-15T19:56:38.784Z,15.20
2024-02-15T19:59:12.335Z,16.00
2024-02-15T20:01:45.008Z,15.52
2024-02-15T20:06:46.858Z,14.50
2024-02-15T20:09:22.309Z,15.88
2024-02-15T20:11:55.058Z,14.77
2024-02-15T20:14:32.874Z,15.90
2024-02-15T20:17:04.030Z,15.70
2024-02-15T20:19:34.863Z,15.38
2024-02-15T20:22:03.973Z,15.60
2024-02-15T20:24:34.828Z,14.45
2024-02-15T20:27:05.596Z,14.38
2024-02-15T20:29:38.534Z,14.80
2024-02-15T20:32:08.934Z,14.65
2024-02-15T20:34:38.289Z,14.90
2024-02-15T20:37:09.272Z,14.65
2024-02-15T20:39:38.751Z,15.10
2024-02-15T20:42:09.777Z,15.55
2024-02-15T20:44:44.360Z,15.48
2024-02-15T20:47:14.812Z,15.93
2024-02-15T20:49:46.613Z,16.63
2024-02-15T20:52:19.488Z,15.40
2024-02-15T20:54:48.127Z,14.75
2024-02-15T20:57:18.184Z,15.95
2024-02-15T20:59:48.383Z,14.93
2024-02-15T21:02:19.017Z,14.48
2024-02-15T21:04:47.466Z,15.57
2024-02-15T21:07:16.190Z,15.52
2024-02-15T21:09:45.004Z,13.50
2024-02-15T21:12:16.162Z,13.15
2024-02-15T21:14:44.829Z,13.25
2024-02-15T21:17:16.620Z,14.02
2024-02-15T21:19:45.554Z,13.75
2024-02-15T21:22:14.599Z,12.98
2024-02-15T21:24:43.391Z,13.73
2024-02-15T21:27:12.080Z,13.30
2024-02-15T21:29:43.545Z,13.18
2024-02-15T21:32:16.187Z,12.50
2024-02-15T21:34:44.851Z,13.55
2024-02-15T21:37:15.316Z,13.55
2024-02-15T21:39:45.636Z,13.35
2024-02-15T21:42:14.879Z,13.15
2024-02-15T21:44:45.039Z,12.63
2024-02-15T21:47:15.817Z,13.93
2024-02-15T21:49:44.818Z,13.48
2024-02-15T21:52:15.172Z,13.20
2024-02-15T21:54:44.622Z,12.85
2024-02-15T21:57:15.811Z,12.13
2024-02-15T21:59:47.817Z,12.15
2024-02-15T22:02:19.616Z,11.67
2024-02-15T22:04:53.905Z,11.40
2024-02-15T22:07:24.560Z,11.45
2024-02-15T22:09:53.982Z,11.70
2024-02-15T22:12:22.838Z,10.88
2024-02-15T22:14:53.091Z,11.95
2024-02-15T22:17:23.512Z,11.30
2024-02-15T22:19:52.016Z,11.27
2024-02-15T22:22:20.929Z,11.30
2024-02-15T22:24:49.665Z,10.20
2024-02-15T22:27:20.072Z,10.45
2024-02-15T22:29:48.933Z,10.73
2024-02-15T22:32:21.874Z,11.82
2024-02-15T22:34:52.427Z,11.05
2024-02-15T22:37:20.941Z,11.43
2024-02-15T22:39:49.396Z,10.18
2024-02-15T22:42:17.908Z,11.27
2024-02-15T22:44:50.296Z,9.30
2024-02-15T22:47:21.421Z,10.55
2024-02-15T22:49:51.710Z,11.05
2024-02-15T22:52:20.742Z,11.45
2024-02-15T22:54:50.202Z,10.77
2024-02-15T22:57:19.184Z,11.10
2024-02-15T22:59:47.865Z,10.10
2024-02-15T23:02:18.144Z,9.00
2024-02-15T23:04:48.906Z,9.68
2024-02-15T23:07:24.300Z,10.30
2024-02-15T23:09:54.452Z,9.80
2024-02-15T23:12:24.680Z,9.73
2024-02-15T23:14:53.634Z,9.95
2024-02-15T23:17:26.366Z,9.02
2024-02-15T23:22:26.660Z,9.10
2024-02-15T23:24:58.029Z,9.30
2024-02-15T23:27:29.648Z,9.23
2024-02-15T23:29:59.729Z,9.25
2024-02-15T23:32:29.086Z,7.68
2024-02-15T23:34:57.750Z,9.10
2024-02-15T23:37:45.354Z,8.50
2024-02-15T23:40:33.245Z,8.82
2024-02-15T23:43:02.287Z,8.30
2024-02-15T23:45:33.953Z,8.23
2024-02-15T23:48:03.196Z,8.67
2024-02-15T23:50:33.970Z,8.13
2024-02-15T23:53:05.332Z,8.10
2024-02-15T23:55:35.682Z,8.40
2024-02-15T23:58:04.368Z,7.82
